sensor_id;sensor_type;location;lat;lon;timestamp;P1;durP1;ratioP1;P2;durP2;ratioP2
34317;SDS011;20582;52.196;20.952;2024-01-30T00:01:22;50.20;;;22.40;;
34317;SDS011;20582;52.196;20.952;2024-01-30T00:03:48;55.08;;;24.88;;
34317;SDS011;20582;52.196;20.952;2024-01-30T00:06:17;54.63;;;23.48;;
34317;SDS011;20582;52.196;20.952;2024-01-30T00:08:43;54.78;;;24.33;;
34317;SDS011;20582;52.196;20.952;2024-01-30T00:11:11;54.13;;;24.15;;
34317;SDS011;20582;52.196;20.952;2024-01-30T00:13:37;56.22;;;23.90;;
34317;SDS011;20582;52.196;20.952;2024-01-30T00:16:03;53.38;;;23.50;;
34317;SDS011;20582;52.196;20.952;2024-01-30T00:18:29;52.17;;;24.00;;
34317;SDS011;20582;52.196;20.952;2024-01-30T00:20:55;53.80;;;24.08;;
34317;SDS011;20582;52.196;20.952;2024-01-30T00:23:21;54.60;;;24.52;;
34317;SDS011;20582;52.196;20.952;2024-01-30T00:25:47;55.28;;;24.33;;
34317;SDS011;20582;52.196;20.952;2024-01-30T00:28:13;54.10;;;25.10;;
34317;SDS011;20582;52.196;20.952;2024-01-30T00:30:39;52.85;;;22.75;;
34317;SDS011;20582;52.196;20.952;2024-01-30T00:33:05;55.65;;;25.48;;
34317;SDS011;20582;52.196;20.952;2024-01-30T00:35:31;54.97;;;24.27;;
34317;SDS011;20582;52.196;20.952;2024-01-30T00:37:57;59.42;;;24.98;;
34317;SDS011;20582;52.196;20.952;2024-01-30T00:40:23;55.47;;;24.17;;
34317;SDS011;20582;52.196;20.952;2024-01-30T00:42:49;55.63;;;23.55;;
34317;SDS011;20582;52.196;20.952;2024-01-30T00:45:15;55.28;;;25.35;;
34317;SDS011;20582;52.196;20.952;2024-01-30T00:47:41;56.75;;;23.48;;
34317;SDS011;20582;52.196;20.952;2024-01-30T00:50:08;50.42;;;22.60;;
34317;SDS011;20582;52.196;20.952;2024-01-30T00:52:34;52.45;;;23.92;;
34317;SDS011;20582;52.196;20.952;2024-01-30T00:55:00;52.53;;;23.20;;
34317;SDS011;20582;52.196;20.952;2024-01-30T00:57:26;55.10;;;23.80;;
34317;SDS011;20582;52.196;20.952;2024-01-30T00:59:52;52.53;;;23.52;;
34317;SDS011;20582;52.196;20.952;2024-01-30T01:02:18;52.72;;;22.70;;
34317;SDS011;20582;52.196;20.952;2024-01-30T01:04:44;53.97;;;24.98;;
34317;SDS011;20582;52.196;20.952;2024-01-30T01:07:10;56.30;;;24.13;;
34317;SDS011;20582;52.196;20.952;2024-01-30T01:09:36;55.80;;;23.70;;
34317;SDS011;20582;52.196;20.952;2024-01-30T01:12:03;58.22;;;24.52;;
34317;SDS011;20582;52.196;20.952;2024-01-30T01:14:29;56.35;;;24.10;;
34317;SDS011;20582;52.196;20.952;2024-01-30T01:16:55;53.53;;;23.92;;
34317;SDS011;20582;52.196;20.952;2024-01-30T01:19:21;59.53;;;24.30;;
34317;SDS011;20582;52.196;20.952;2024-01-30T01:21:47;53.38;;;25.05;;
34317;SDS011;20582;52.196;20.952;2024-01-30T01:24:13;58.67;;;24.40;;
34317;SDS011;20582;52.196;20.952;2024-01-30T01:26:39;53.97;;;23.48;;
34317;SDS011;20582;52.196;20.952;2024-01-30T01:29:06;56.40;;;23.23;;
34317;SDS011;20582;52.196;20.952;2024-01-30T01:31:36;53.92;;;23.77;;
34317;SDS011;20582;52.196;20.952;2024-01-30T01:34:11;56.55;;;25.13;;
34317;SDS011;20582;52.196;20.952;2024-01-30T01:36:37;54.25;;;23.80;;
34317;SDS011;20582;52.196;20.952;2024-01-30T01:39:03;57.28;;;25.05;;
34317;SDS011;20582;52.196;20.952;2024-01-30T01:41:32;56.53;;;24.58;;
34317;SDS011;20582;52.196;20.952;2024-01-30T01:43:59;53.97;;;24.50;;
34317;SDS011;20582;52.196;20.952;2024-01-30T01:46:30;51.92;;;24.48;;
34317;SDS011;20582;52.196;20.952;2024-01-30T01:48:58;53.88;;;24.13;;
34317;SDS011;20582;52.196;20.952;2024-01-30T01:51:24;56.00;;;24.90;;
34317;SDS011;20582;52.196;20.952;2024-01-30T01:53:51;51.30;;;23.70;;
34317;SDS011;20582;52.196;20.952;2024-01-30T01:56:17;51.63;;;23.42;;
34317;SDS011;20582;52.196;20.952;2024-01-30T01:58:44;54.22;;;24.50;;
34317;SDS011;20582;52.196;20.952;2024-01-30T02:01:11;54.97;;;24.10;;
34317;SDS011;20582;52.196;20.952;2024-01-30T02:03:38;52.65;;;23.90;;
34317;SDS011;20582;52.196;20.952;2024-01-30T02:06:04;54.78;;;23.00;;
34317;SDS011;20582;52.196;20.952;2024-01-30T02:08:30;53.28;;;23.92;;
34317;SDS011;20582;52.196;20.952;2024-01-30T02:10:58;54.80;;;24.92;;
34317;SDS011;20582;52.196;20.952;2024-01-30T02:13:24;47.13;;;23.17;;
34317;SDS011;20582;52.196;20.952;2024-01-30T02:15:50;55.05;;;23.35;;
34317;SDS011;20582;52.196;20.952;2024-01-30T02:18:17;54.63;;;24.20;;
34317;SDS011;20582;52.196;20.952;2024-01-30T02:20:43;55.88;;;25.05;;
34317;SDS011;20582;52.196;20.952;2024-01-30T02:23:09;52.80;;;23.63;;
34317;SDS011;20582;52.196;20.952;2024-01-30T02:25:36;54.80;;;23.35;;
34317;SDS011;20582;52.196;20.952;2024-01-30T02:28:02;57.75;;;22.60;;
34317;SDS011;20582;52.196;20.952;2024-01-30T02:30:28;54.83;;;23.05;;
34317;SDS011;20582;52.196;20.952;2024-01-30T02:32:54;53.03;;;24.08;;
34317;SDS011;20582;52.196;20.952;2024-01-30T02:35:20;52.28;;;23.58;;
34317;SDS011;20582;52.196;20.952;2024-01-30T02:37:46;50.70;;;22.55;;
34317;SDS011;20582;52.196;20.952;2024-01-30T02:40:12;48.28;;;21.38;;
34317;SDS011;20582;52.196;20.952;2024-01-30T02:42:39;54.45;;;23.52;;
34317;SDS011;20582;52.196;20.952;2024-01-30T02:45:05;51.50;;;22.13;;
34317;SDS011;20582;52.196;20.952;2024-01-30T02:47:31;48.97;;;22.50;;
34317;SDS011;20582;52.196;20.952;2024-01-30T02:49:57;46.63;;;21.75;;
34317;SDS011;20582;52.196;20.952;2024-01-30T02:52:22;49.38;;;21.85;;
34317;SDS011;20582;52.196;20.952;2024-01-30T02:54:48;48.20;;;22.02;;
34317;SDS011;20582;52.196;20.952;2024-01-30T02:57:14;46.38;;;21.45;;
34317;SDS011;20582;52.196;20.952;2024-01-30T02:59:40;48.90;;;20.95;;
34317;SDS011;20582;52.196;20.952;2024-01-30T03:02:06;49.33;;;21.85;;
34317;SDS011;20582;52.196;20.952;2024-01-30T03:04:32;57.65;;;24.23;;
34317;SDS011;20582;52.196;20.952;2024-01-30T03:06:58;56.58;;;24.35;;
34317;SDS011;20582;52.196;20.952;2024-01-30T03:09:24;53.45;;;23.92;;
34317;SDS011;20582;52.196;20.952;2024-01-30T03:11:50;48.78;;;21.92;;
34317;SDS011;20582;52.196;20.952;2024-01-30T03:14:16;50.17;;;21.08;;
34317;SDS011;20582;52.196;20.952;2024-01-30T03:16:42;46.10;;;21.65;;
34317;SDS011;20582;52.196;20.952;2024-01-30T03:19:08;52.65;;;22.27;;
34317;SDS011;20582;52.196;20.952;2024-01-30T03:21:34;49.58;;;21.50;;
34317;SDS011;20582;52.196;20.952;2024-01-30T03:24:00;45.45;;;21.05;;
34317;SDS011;20582;52.196;20.952;2024-01-30T03:26:26;52.45;;;20.95;;
34317;SDS011;20582;52.196;20.952;2024-01-30T03:28:52;47.58;;;21.45;;
34317;SDS011;20582;52.196;20.952;2024-01-30T03:31:18;49.15;;;20.90;;
34317;SDS011;20582;52.196;20.952;2024-01-30T03:33:44;50.45;;;22.02;;
34317;SDS011;20582;52.196;20.952;2024-01-30T03:36:10;49.78;;;21.88;;
34317;SDS011;20582;52.196;20.952;2024-01-30T03:38:36;51.90;;;22.60;;
34317;SDS011;20582;52.196;20.952;2024-01-30T03:41:02;48.00;;;22.23;;
34317;SDS011;20582;52.196;20.952;2024-01-30T03:43:28;50.10;;;20.85;;
34317;SDS011;20582;52.196;20.952;2024-01-30T03:45:54;45.72;;;20.73;;
34317;SDS011;20582;52.196;20.952;2024-01-30T03:48:20;44.55;;;21.13;;
34317;SDS011;20582;52.196;20.952;2024-01-30T03:50:46;53.85;;;22.25;;
34317;SDS011;20582;52.196;20.952;2024-01-30T03:53:12;54.85;;;22.33;;
34317;SDS011;20582;52.196;20.952;2024-01-30T03:55:38;59.58;;;23.77;;
34317;SDS011;20582;52.196;20.952;2024-01-30T03:58:04;60.78;;;25.23;;
34317;SDS011;20582;52.196;20.952;2024-01-30T04:00:30;55.25;;;24.15;;
34317;SDS011;20582;52.196;20.952;2024-01-30T04:02:56;57.92;;;23.48;;
34317;SDS011;20582;52.196;20.952;2024-01-30T04:05:22;56.28;;;24.02;;
34317;SDS011;20582;52.196;20.952;2024-01-30T04:07:48;57.30;;;25.23;;
34317;SDS011;20582;52.196;20.952;2024-01-30T04:10:14;54.13;;;23.73;;
34317;SDS011;20582;52.196;20.952;2024-01-30T04:12:40;54.47;;;22.95;;
34317;SDS011;20582;52.196;20.952;2024-01-30T04:15:06;51.33;;;22.45;;
34317;SDS011;20582;52.196;20.952;2024-01-30T04:17:32;52.10;;;21.65;;
34317;SDS011;20582;52.196;20.952;2024-01-30T04:19:58;49.70;;;22.88;;
34317;SDS011;20582;52.196;20.952;2024-01-30T04:22:24;57.03;;;23.27;;
34317;SDS011;20582;52.196;20.952;2024-01-30T04:24:50;50.42;;;23.30;;
34317;SDS011;20582;52.196;20.952;2024-01-30T04:27:16;51.85;;;23.35;;
34317;SDS011;20582;52.196;20.952;2024-01-30T04:29:42;53.10;;;23.33;;
34317;SDS011;20582;52.196;20.952;2024-01-30T04:32:09;56.13;;;23.92;;
34317;SDS011;20582;52.196;20.952;2024-01-30T04:34:36;51.38;;;24.20;;
34317;SDS011;20582;52.196;20.952;2024-01-30T04:37:02;52.80;;;23.27;;
34317;SDS011;20582;52.196;20.952;2024-01-30T04:39:28;54.38;;;23.83;;
34317;SDS011;20582;52.196;20.952;2024-01-30T04:41:54;53.53;;;25.05;;
34317;SDS011;20582;52.196;20.952;2024-01-30T04:44:20;53.05;;;22.20;;
34317;SDS011;20582;52.196;20.952;2024-01-30T04:46:46;53.38;;;22.50;;
34317;SDS011;20582;52.196;20.952;2024-01-30T04:49:12;50.17;;;22.00;;
34317;SDS011;20582;52.196;20.952;2024-01-30T04:51:38;49.55;;;21.30;;
34317;SDS011;20582;52.196;20.952;2024-01-30T04:54:04;46.45;;;23.20;;
34317;SDS011;20582;52.196;20.952;2024-01-30T04:56:30;49.30;;;21.70;;
34317;SDS011;20582;52.196;20.952;2024-01-30T04:58:56;53.72;;;22.33;;
34317;SDS011;20582;52.196;20.952;2024-01-30T05:01:22;46.05;;;21.98;;
34317;SDS011;20582;52.196;20.952;2024-01-30T05:03:48;46.03;;;21.65;;
34317;SDS011;20582;52.196;20.952;2024-01-30T05:06:23;48.33;;;20.88;;
34317;SDS011;20582;52.196;20.952;2024-01-30T05:08:49;51.53;;;22.88;;
34317;SDS011;20582;52.196;20.952;2024-01-30T05:11:15;51.85;;;22.98;;
34317;SDS011;20582;52.196;20.952;2024-01-30T05:13:41;60.03;;;25.40;;
34317;SDS011;20582;52.196;20.952;2024-01-30T05:16:07;53.90;;;21.77;;
34317;SDS011;20582;52.196;20.952;2024-01-30T05:18:33;51.00;;;22.25;;
34317;SDS011;20582;52.196;20.952;2024-01-30T05:20:59;53.95;;;24.13;;
34317;SDS011;20582;52.196;20.952;2024-01-30T05:23:25;48.92;;;22.42;;
34317;SDS011;20582;52.196;20.952;2024-01-30T05:25:51;49.13;;;21.90;;
34317;SDS011;20582;52.196;20.952;2024-01-30T05:28:17;50.63;;;24.45;;
34317;SDS011;20582;52.196;20.952;2024-01-30T05:30:43;52.90;;;23.27;;
34317;SDS011;20582;52.196;20.952;2024-01-30T05:33:09;51.08;;;23.00;;
34317;SDS011;20582;52.196;20.952;2024-01-30T05:35:37;51.05;;;21.27;;
34317;SDS011;20582;52.196;20.952;2024-01-30T05:38:03;50.00;;;21.23;;
34317;SDS011;20582;52.196;20.952;2024-01-30T05:40:29;50.78;;;21.58;;
34317;SDS011;20582;52.196;20.952;2024-01-30T05:42:55;52.95;;;21.48;;
34317;SDS011;20582;52.196;20.952;2024-01-30T05:45:23;50.35;;;22.98;;
34317;SDS011;20582;52.196;20.952;2024-01-30T05:47:49;45.78;;;21.23;;
34317;SDS011;20582;52.196;20.952;2024-01-30T05:50:15;49.35;;;22.33;;
34317;SDS011;20582;52.196;20.952;2024-01-30T05:52:41;52.58;;;21.63;;
34317;SDS011;20582;52.196;20.952;2024-01-30T05:55:07;48.72;;;20.92;;
34317;SDS011;20582;52.196;20.952;2024-01-30T05:57:33;50.17;;;23.05;;
34317;SDS011;20582;52.196;20.952;2024-01-30T05:59:59;56.65;;;22.40;;
34317;SDS011;20582;52.196;20.952;2024-01-30T06:02:25;54.20;;;23.33;;
34317;SDS011;20582;52.196;20.952;2024-01-30T06:04:51;59.35;;;23.20;;
34317;SDS011;20582;52.196;20.952;2024-01-30T06:07:17;54.25;;;23.95;;
34317;SDS011;20582;52.196;20.952;2024-01-30T06:09:43;55.75;;;23.77;;
34317;SDS011;20582;52.196;20.952;2024-01-30T06:12:10;57.95;;;23.58;;
34317;SDS011;20582;52.196;20.952;2024-01-30T06:14:37;57.65;;;24.20;;
34317;SDS011;20582;52.196;20.952;2024-01-30T06:17:03;50.20;;;23.02;;
34317;SDS011;20582;52.196;20.952;2024-01-30T06:19:30;52.03;;;23.58;;
34317;SDS011;20582;52.196;20.952;2024-01-30T06:21:56;48.88;;;22.15;;
34317;SDS011;20582;52.196;20.952;2024-01-30T06:24:22;47.13;;;23.60;;
34317;SDS011;20582;52.196;20.952;2024-01-30T06:26:48;51.70;;;21.48;;
34317;SDS011;20582;52.196;20.952;2024-01-30T06:29:13;54.00;;;21.63;;
34317;SDS011;20582;52.196;20.952;2024-01-30T06:31:41;53.38;;;21.73;;
34317;SDS011;20582;52.196;20.952;2024-01-30T06:34:08;51.10;;;23.52;;
34317;SDS011;20582;52.196;20.952;2024-01-30T06:36:34;50.25;;;21.88;;
34317;SDS011;20582;52.196;20.952;2024-01-30T06:39:00;50.78;;;22.15;;
34317;SDS011;20582;52.196;20.952;2024-01-30T06:41:26;49.42;;;23.33;;
34317;SDS011;20582;52.196;20.952;2024-01-30T06:43:52;49.03;;;22.33;;
34317;SDS011;20582;52.196;20.952;2024-01-30T06:46:18;53.22;;;24.10;;
34317;SDS011;20582;52.196;20.952;2024-01-30T06:48:44;50.42;;;22.50;;
34317;SDS011;20582;52.196;20.952;2024-01-30T06:51:10;52.60;;;22.75;;
34317;SDS011;20582;52.196;20.952;2024-01-30T06:53:37;51.03;;;22.63;;
34317;SDS011;20582;52.196;20.952;2024-01-30T06:56:03;49.90;;;21.77;;
34317;SDS011;20582;52.196;20.952;2024-01-30T06:58:29;47.70;;;21.30;;
34317;SDS011;20582;52.196;20.952;2024-01-30T07:00:55;48.20;;;21.48;;
34317;SDS011;20582;52.196;20.952;2024-01-30T07:03:21;53.65;;;22.65;;
34317;SDS011;20582;52.196;20.952;2024-01-30T07:05:47;47.35;;;21.33;;
34317;SDS011;20582;52.196;20.952;2024-01-30T07:08:14;48.92;;;21.23;;
34317;SDS011;20582;52.196;20.952;2024-01-30T07:10:42;45.80;;;22.13;;
34317;SDS011;20582;52.196;20.952;2024-01-30T07:13:08;48.53;;;21.10;;
34317;SDS011;20582;52.196;20.952;2024-01-30T07:15:35;48.95;;;21.75;;
34317;SDS011;20582;52.196;20.952;2024-01-30T07:18:01;45.35;;;21.92;;
34317;SDS011;20582;52.196;20.952;2024-01-30T07:20:28;41.30;;;20.58;;
34317;SDS011;20582;52.196;20.952;2024-01-30T07:22:55;51.08;;;21.52;;
34317;SDS011;20582;52.196;20.952;2024-01-30T07:25:21;44.70;;;21.13;;
34317;SDS011;20582;52.196;20.952;2024-01-30T07:27:51;49.75;;;20.70;;
34317;SDS011;20582;52.196;20.952;2024-01-30T07:30:17;47.75;;;19.95;;
34317;SDS011;20582;52.196;20.952;2024-01-30T07:32:43;47.72;;;20.67;;
34317;SDS011;20582;52.196;20.952;2024-01-30T07:35:09;51.47;;;21.92;;
34317;SDS011;20582;52.196;20.952;2024-01-30T07:37:36;45.95;;;21.90;;
34317;SDS011;20582;52.196;20.952;2024-01-30T07:40:02;44.05;;;20.65;;
34317;SDS011;20582;52.196;20.952;2024-01-30T07:42:28;42.03;;;20.65;;
34317;SDS011;20582;52.196;20.952;2024-01-30T07:44:54;44.92;;;20.80;;
34317;SDS011;20582;52.196;20.952;2024-01-30T07:47:20;45.85;;;21.92;;
34317;SDS011;20582;52.196;20.952;2024-01-30T07:49:46;48.65;;;21.50;;
34317;SDS011;20582;52.196;20.952;2024-01-30T07:52:12;46.10;;;21.33;;
34317;SDS011;20582;52.196;20.952;2024-01-30T07:54:38;45.20;;;21.17;;
34317;SDS011;20582;52.196;20.952;2024-01-30T07:57:04;41.60;;;20.05;;
34317;SDS011;20582;52.196;20.952;2024-01-30T07:59:30;45.30;;;19.75;;
34317;SDS011;20582;52.196;20.952;2024-01-30T08:01:56;43.50;;;19.38;;
34317;SDS011;20582;52.196;20.952;2024-01-30T08:04:22;38.63;;;18.90;;
34317;SDS011;20582;52.196;20.952;2024-01-30T08:06:48;47.50;;;20.33;;
34317;SDS011;20582;52.196;20.952;2024-01-30T08:09:14;42.72;;;20.08;;
34317;SDS011;20582;52.196;20.952;2024-01-30T08:11:40;40.38;;;19.58;;
34317;SDS011;20582;52.196;20.952;2024-01-30T08:14:06;39.75;;;19.85;;
34317;SDS011;20582;52.196;20.952;2024-01-30T08:16:32;37.20;;;18.90;;
34317;SDS011;20582;52.196;20.952;2024-01-30T08:18:58;37.58;;;18.30;;
34317;SDS011;20582;52.196;20.952;2024-01-30T08:21:24;36.55;;;19.45;;
34317;SDS011;20582;52.196;20.952;2024-01-30T08:23:50;39.95;;;19.38;;
34317;SDS011;20582;52.196;20.952;2024-01-30T08:26:16;38.55;;;18.98;;
34317;SDS011;20582;52.196;20.952;2024-01-30T08:28:42;38.47;;;19.08;;
34317;SDS011;20582;52.196;20.952;2024-01-30T08:31:10;37.70;;;19.15;;
34317;SDS011;20582;52.196;20.952;2024-01-30T08:33:42;34.65;;;18.50;;
34317;SDS011;20582;52.196;20.952;2024-01-30T08:36:08;35.72;;;19.70;;
34317;SDS011;20582;52.196;20.952;2024-01-30T08:38:34;36.03;;;18.75;;
34317;SDS011;20582;52.196;20.952;2024-01-30T08:41:00;33.47;;;18.55;;
34317;SDS011;20582;52.196;20.952;2024-01-30T08:43:26;32.63;;;17.83;;
34317;SDS011;20582;52.196;20.952;2024-01-30T08:45:52;34.60;;;18.08;;
34317;SDS011;20582;52.196;20.952;2024-01-30T08:48:17;35.70;;;16.98;;
34317;SDS011;20582;52.196;20.952;2024-01-30T08:50:43;30.92;;;16.23;;
34317;SDS011;20582;52.196;20.952;2024-01-30T08:53:09;31.05;;;16.63;;
34317;SDS011;20582;52.196;20.952;2024-01-30T08:55:35;32.97;;;15.60;;
34317;SDS011;20582;52.196;20.952;2024-01-30T08:58:01;30.25;;;16.23;;
34317;SDS011;20582;52.196;20.952;2024-01-30T09:00:29;31.73;;;16.30;;
34317;SDS011;20582;52.196;20.952;2024-01-30T09:02:55;30.35;;;16.35;;
34317;SDS011;20582;52.196;20.952;2024-01-30T09:05:21;29.75;;;16.25;;
34317;SDS011;20582;52.196;20.952;2024-01-30T09:07:47;29.52;;;15.77;;
34317;SDS011;20582;52.196;20.952;2024-01-30T09:10:13;30.30;;;15.77;;
34317;SDS011;20582;52.196;20.952;2024-01-30T09:12:39;27.52;;;14.20;;
34317;SDS011;20582;52.196;20.952;2024-01-30T09:15:05;28.75;;;15.00;;
34317;SDS011;20582;52.196;20.952;2024-01-30T09:17:31;26.27;;;14.43;;
34317;SDS011;20582;52.196;20.952;2024-01-30T09:19:58;26.92;;;14.18;;
34317;SDS011;20582;52.196;20.952;2024-01-30T09:22:24;26.58;;;14.93;;
34317;SDS011;20582;52.196;20.952;2024-01-30T09:24:50;31.70;;;16.05;;
34317;SDS011;20582;52.196;20.952;2024-01-30T09:27:16;31.88;;;14.98;;
34317;SDS011;20582;52.196;20.952;2024-01-30T09:29:42;29.55;;;13.75;;
34317;SDS011;20582;52.196;20.952;2024-01-30T09:32:08;25.80;;;14.07;;
34317;SDS011;20582;52.196;20.952;2024-01-30T09:34:34;27.88;;;14.05;;
34317;SDS011;20582;52.196;20.952;2024-01-30T09:37:00;26.45;;;14.07;;
34317;SDS011;20582;52.196;20.952;2024-01-30T09:39:26;24.33;;;12.85;;
34317;SDS011;20582;52.196;20.952;2024-01-30T09:41:57;28.98;;;13.65;;
34317;SDS011;20582;52.196;20.952;2024-01-30T09:44:25;30.63;;;14.95;;
34317;SDS011;20582;52.196;20.952;2024-01-30T09:46:51;32.33;;;14.90;;
34317;SDS011;20582;52.196;20.952;2024-01-30T09:49:17;25.02;;;13.50;;
34317;SDS011;20582;52.196;20.952;2024-01-30T09:51:44;24.27;;;13.02;;
34317;SDS011;20582;52.196;20.952;2024-01-30T09:54:11;26.05;;;12.95;;
34317;SDS011;20582;52.196;20.952;2024-01-30T09:56:40;25.67;;;13.27;;
34317;SDS011;20582;52.196;20.952;2024-01-30T09:59:06;27.42;;;13.85;;
34317;SDS011;20582;52.196;20.952;2024-01-30T10:01:33;27.52;;;13.07;;
34317;SDS011;20582;52.196;20.952;2024-01-30T10:04:00;28.38;;;13.38;;
34317;SDS011;20582;52.196;20.952;2024-01-30T10:06:26;22.52;;;12.93;;
34317;SDS011;20582;52.196;20.952;2024-01-30T10:08:52;21.88;;;12.70;;
34317;SDS011;20582;52.196;20.952;2024-01-30T10:11:18;23.65;;;12.80;;
34317;SDS011;20582;52.196;20.952;2024-01-30T10:13:44;24.38;;;12.18;;
34317;SDS011;20582;52.196;20.952;2024-01-30T10:16:13;19.85;;;12.25;;
34317;SDS011;20582;52.196;20.952;2024-01-30T10:18:40;23.67;;;13.90;;
34317;SDS011;20582;52.196;20.952;2024-01-30T10:21:07;25.85;;;13.38;;
34317;SDS011;20582;52.196;20.952;2024-01-30T10:23:33;21.27;;;12.27;;
34317;SDS011;20582;52.196;20.952;2024-01-30T10:25:59;21.45;;;12.95;;
34317;SDS011;20582;52.196;20.952;2024-01-30T10:28:28;20.63;;;12.60;;
34317;SDS011;20582;52.196;20.952;2024-01-30T10:30:58;24.20;;;13.65;;
34317;SDS011;20582;52.196;20.952;2024-01-30T10:33:24;23.85;;;13.02;;
34317;SDS011;20582;52.196;20.952;2024-01-30T10:35:50;22.67;;;13.10;;
34317;SDS011;20582;52.196;20.952;2024-01-30T10:38:17;21.70;;;12.68;;
34317;SDS011;20582;52.196;20.952;2024-01-30T10:40:44;24.17;;;13.98;;
34317;SDS011;20582;52.196;20.952;2024-01-30T10:43:11;25.77;;;14.30;;
34317;SDS011;20582;52.196;20.952;2024-01-30T10:45:40;25.27;;;13.43;;
34317;SDS011;20582;52.196;20.952;2024-01-30T10:48:06;26.15;;;14.30;;
34317;SDS011;20582;52.196;20.952;2024-01-30T10:50:33;27.08;;;15.15;;
34317;SDS011;20582;52.196;20.952;2024-01-30T10:53:00;28.20;;;16.35;;
34317;SDS011;20582;52.196;20.952;2024-01-30T10:55:27;26.83;;;15.85;;
34317;SDS011;20582;52.196;20.952;2024-01-30T10:57:54;23.75;;;14.68;;
34317;SDS011;20582;52.196;20.952;2024-01-30T11:00:20;28.13;;;17.08;;
34317;SDS011;20582;52.196;20.952;2024-01-30T11:02:48;26.42;;;15.63;;
34317;SDS011;20582;52.196;20.952;2024-01-30T11:05:15;25.80;;;15.00;;
34317;SDS011;20582;52.196;20.952;2024-01-30T11:07:52;25.25;;;14.25;;
34317;SDS011;20582;52.196;20.952;2024-01-30T11:10:18;25.42;;;13.82;;
34317;SDS011;20582;52.196;20.952;2024-01-30T11:12:45;27.13;;;14.63;;
34317;SDS011;20582;52.196;20.952;2024-01-30T11:15:13;24.10;;;13.27;;
34317;SDS011;20582;52.196;20.952;2024-01-30T11:17:42;25.70;;;14.40;;
34317;SDS011;20582;52.196;20.952;2024-01-30T11:20:14;23.65;;;13.95;;
34317;SDS011;20582;52.196;20.952;2024-01-30T11:22:41;21.48;;;13.63;;
34317;SDS011;20582;52.196;20.952;2024-01-30T11:25:10;26.35;;;14.98;;
34317;SDS011;20582;52.196;20.952;2024-01-30T11:27:37;25.95;;;14.77;;
34317;SDS011;20582;52.196;20.952;2024-01-30T11:30:03;27.55;;;15.20;;
34317;SDS011;20582;52.196;20.952;2024-01-30T11:32:30;25.23;;;15.15;;
34317;SDS011;20582;52.196;20.952;2024-01-30T11:34:57;31.10;;;17.75;;
34317;SDS011;20582;52.196;20.952;2024-01-30T11:37:25;34.75;;;17.33;;
34317;SDS011;20582;52.196;20.952;2024-01-30T11:39:54;28.50;;;15.90;;
34317;SDS011;20582;52.196;20.952;2024-01-30T11:42:21;28.02;;;14.68;;
34317;SDS011;20582;52.196;20.952;2024-01-30T11:44:47;22.95;;;13.02;;
34317;SDS011;20582;52.196;20.952;2024-01-30T11:47:14;24.10;;;13.95;;
34317;SDS011;20582;52.196;20.952;2024-01-30T11:49:40;23.67;;;13.80;;
34317;SDS011;20582;52.196;20.952;2024-01-30T11:52:06;25.48;;;13.30;;
34317;SDS011;20582;52.196;20.952;2024-01-30T11:54:32;31.80;;;15.90;;
34317;SDS011;20582;52.196;20.952;2024-01-30T11:56:58;26.17;;;13.98;;
34317;SDS011;20582;52.196;20.952;2024-01-30T11:59:24;25.95;;;12.95;;
34317;SDS011;20582;52.196;20.952;2024-01-30T12:01:51;29.27;;;15.85;;
34317;SDS011;20582;52.196;20.952;2024-01-30T12:04:17;27.42;;;14.20;;
34317;SDS011;20582;52.196;20.952;2024-01-30T12:06:43;21.50;;;13.00;;
34317;SDS011;20582;52.196;20.952;2024-01-30T12:09:10;26.25;;;14.07;;
34317;SDS011;20582;52.196;20.952;2024-01-30T12:11:44;27.38;;;14.57;;
34317;SDS011;20582;52.196;20.952;2024-01-30T12:14:11;22.27;;;13.88;;
34317;SDS011;20582;52.196;20.952;2024-01-30T12:16:37;24.75;;;14.55;;
34317;SDS011;20582;52.196;20.952;2024-01-30T12:19:03;26.63;;;13.45;;
34317;SDS011;20582;52.196;20.952;2024-01-30T12:21:29;26.90;;;14.98;;
34317;SDS011;20582;52.196;20.952;2024-01-30T12:23:56;27.85;;;13.70;;
34317;SDS011;20582;52.196;20.952;2024-01-30T12:26:23;27.00;;;14.35;;
34317;SDS011;20582;52.196;20.952;2024-01-30T12:28:50;29.00;;;14.27;;
34317;SDS011;20582;52.196;20.952;2024-01-30T12:31:16;25.52;;;15.27;;
34317;SDS011;20582;52.196;20.952;2024-01-30T12:33:42;24.55;;;14.02;;
34317;SDS011;20582;52.196;20.952;2024-01-30T12:36:08;26.77;;;15.60;;
34317;SDS011;20582;52.196;20.952;2024-01-30T12:38:34;23.95;;;14.18;;
34317;SDS011;20582;52.196;20.952;2024-01-30T12:41:00;24.20;;;13.90;;
34317;SDS011;20582;52.196;20.952;2024-01-30T12:43:26;22.85;;;13.48;;
34317;SDS011;20582;52.196;20.952;2024-01-30T12:45:53;24.75;;;13.07;;
34317;SDS011;20582;52.196;20.952;2024-01-30T12:48:19;24.38;;;13.77;;
34317;SDS011;20582;52.196;20.952;2024-01-30T12:50:45;21.50;;;14.18;;
34317;SDS011;20582;52.196;20.952;2024-01-30T12:53:11;23.70;;;13.90;;
34317;SDS011;20582;52.196;20.952;2024-01-30T12:55:38;22.90;;;13.75;;
34317;SDS011;20582;52.196;20.952;2024-01-30T12:58:04;22.83;;;14.65;;
34317;SDS011;20582;52.196;20.952;2024-01-30T13:00:30;26.50;;;15.70;;
34317;SDS011;20582;52.196;20.952;2024-01-30T13:02:56;28.70;;;17.05;;
34317;SDS011;20582;52.196;20.952;2024-01-30T13:05:22;21.13;;;13.43;;
34317;SDS011;20582;52.196;20.952;2024-01-30T13:07:50;23.55;;;14.13;;
34317;SDS011;20582;52.196;20.952;2024-01-30T13:10:18;25.05;;;14.13;;
34317;SDS011;20582;52.196;20.952;2024-01-30T13:12:44;24.45;;;14.02;;
34317;SDS011;20582;52.196;20.952;2024-01-30T13:15:10;25.98;;;14.98;;
34317;SDS011;20582;52.196;20.952;2024-01-30T13:17:36;27.45;;;16.58;;
34317;SDS011;20582;52.196;20.952;2024-01-30T13:20:02;26.08;;;15.38;;
34317;SDS011;20582;52.196;20.952;2024-01-30T13:22:29;25.25;;;14.10;;
34317;SDS011;20582;52.196;20.952;2024-01-30T13:24:55;25.17;;;13.65;;
34317;SDS011;20582;52.196;20.952;2024-01-30T13:27:21;24.73;;;13.82;;
34317;SDS011;20582;52.196;20.952;2024-01-30T13:29:47;22.75;;;13.82;;
34317;SDS011;20582;52.196;20.952;2024-01-30T13:32:13;24.92;;;14.35;;
34317;SDS011;20582;52.196;20.952;2024-01-30T13:34:39;25.55;;;14.90;;
34317;SDS011;20582;52.196;20.952;2024-01-30T13:37:06;25.10;;;13.85;;
34317;SDS011;20582;52.196;20.952;2024-01-30T13:39:32;25.60;;;14.10;;
34317;SDS011;20582;52.196;20.952;2024-01-30T13:41:58;25.08;;;14.45;;
34317;SDS011;20582;52.196;20.952;2024-01-30T13:44:24;32.78;;;17.08;;
34317;SDS011;20582;52.196;20.952;2024-01-30T13:46:50;29.65;;;15.38;;
34317;SDS011;20582;52.196;20.952;2024-01-30T13:49:16;24.20;;;14.15;;
34317;SDS011;20582;52.196;20.952;2024-01-30T13:51:42;25.08;;;14.10;;
34317;SDS011;20582;52.196;20.952;2024-01-30T13:54:08;27.27;;;14.60;;
34317;SDS011;20582;52.196;20.952;2024-01-30T13:56:34;25.30;;;13.88;;
34317;SDS011;20582;52.196;20.952;2024-01-30T13:59:00;27.67;;;14.65;;
34317;SDS011;20582;52.196;20.952;2024-01-30T14:01:30;31.80;;;15.90;;
34317;SDS011;20582;52.196;20.952;2024-01-30T14:03:56;27.35;;;14.52;;